sensor_id;sensor_type;location;lat;lon;timestamp;temperature;humidity
4739;DHT22;2383;48.632;10.156;2023-01-26T00:03:08;-0.80;99.20
4739;DHT22;2383;48.632;10.156;2023-01-26T00:07:10;-0.30;98.60
4739;DHT22;2383;48.632;10.156;2023-01-26T00:11:15;0.10;98.10
4739;DHT22;2383;48.632;10.156;2023-01-26T00:15:17;0.50;97.70
4739;DHT22;2383;48.632;10.156;2023-01-26T00:19:19;0.70;97.40
4739;DHT22;2383;48.632;10.156;2023-01-26T00:23:21;0.90;97.20
4739;DHT22;2383;48.632;10.156;2023-01-26T00:27:23;0.90;97.20
4739;DHT22;2383;48.632;10.156;2023-01-26T00:31:26;1.10;97.20
4739;DHT22;2383;48.632;10.156;2023-01-26T00:35:28;1.20;96.80
4739;DHT22;2383;48.632;10.156;2023-01-26T00:39:30;1.20;96.80
4739;DHT22;2383;48.632;10.156;2023-01-26T00:43:34;1.00;97.00
4739;DHT22;2383;48.632;10.156;2023-01-26T00:47:36;0.80;97.00
4739;DHT22;2383;48.632;10.156;2023-01-26T00:51:38;0.70;97.40
4739;DHT22;2383;48.632;10.156;2023-01-26T00:55:40;0.70;97.30
4739;DHT22;2383;48.632;10.156;2023-01-26T00:59:42;0.90;97.30
4739;DHT22;2383;48.632;10.156;2023-01-26T01:03:44;0.90;97.20
4739;DHT22;2383;48.632;10.156;2023-01-26T01:07:46;1.00;97.20
4739;DHT22;2383;48.632;10.156;2023-01-26T01:11:48;0.90;97.10
4739;DHT22;2383;48.632;10.156;2023-01-26T01:15:50;0.60;97.20
4739;DHT22;2383;48.632;10.156;2023-01-26T01:19:52;0.00;97.80
4739;DHT22;2383;48.632;10.156;2023-01-26T01:23:55;0.10;97.90
4739;DHT22;2383;48.632;10.156;2023-01-26T01:27:57;0.40;97.90
4739;DHT22;2383;48.632;10.156;2023-01-26T01:31:59;0.30;97.60
4739;DHT22;2383;48.632;10.156;2023-01-26T01:36:04;0.50;97.50
4739;DHT22;2383;48.632;10.156;2023-01-26T01:40:11;0.50;97.50
4739;DHT22;2383;48.632;10.156;2023-01-26T01:44:24;0.70;97.30
4739;DHT22;2383;48.632;10.156;2023-01-26T01:52:29;0.90;96.80
4739;DHT22;2383;48.632;10.156;2023-01-26T01:56:33;0.90;96.90
4739;DHT22;2383;48.632;10.156;2023-01-26T02:00:35;1.00;96.80
4739;DHT22;2383;48.632;10.156;2023-01-26T02:04:37;1.00;96.70
4739;DHT22;2383;48.632;10.156;2023-01-26T02:08:43;1.00;96.50
4739;DHT22;2383;48.632;10.156;2023-01-26T02:12:52;1.00;96.60
4739;DHT22;2383;48.632;10.156;2023-01-26T02:16:57;0.80;96.50
4739;DHT22;2383;48.632;10.156;2023-01-26T02:21:08;0.80;96.60
4739;DHT22;2383;48.632;10.156;2023-01-26T02:29:32;0.80;96.30
4739;DHT22;2383;48.632;10.156;2023-01-26T02:33:35;0.90;96.40
4739;DHT22;2383;48.632;10.156;2023-01-26T02:37:39;0.50;96.50
4739;DHT22;2383;48.632;10.156;2023-01-26T02:41:42;0.70;96.80
4739;DHT22;2383;48.632;10.156;2023-01-26T02:46:03;1.00;96.60
4739;DHT22;2383;48.632;10.156;2023-01-26T02:50:10;1.00;96.40
4739;DHT22;2383;48.632;10.156;2023-01-26T02:54:13;1.10;96.30
4739;DHT22;2383;48.632;10.156;2023-01-26T02:58:35;1.00;96.50
4739;DHT22;2383;48.632;10.156;2023-01-26T03:02:39;0.90;96.40
4739;DHT22;2383;48.632;10.156;2023-01-26T03:06:41;0.70;96.20
4739;DHT22;2383;48.632;10.156;2023-01-26T03:10:44;0.70;96.20
4739;DHT22;2383;48.632;10.156;2023-01-26T03:14:48;0.80;96.40
4739;DHT22;2383;48.632;10.156;2023-01-26T03:19:15;0.90;96.40
4739;DHT22;2383;48.632;10.156;2023-01-26T03:23:42;0.80;96.40
4739;DHT22;2383;48.632;10.156;2023-01-26T03:28:02;0.80;96.40
4739;DHT22;2383;48.632;10.156;2023-01-26T03:32:06;0.70;96.50
4739;DHT22;2383;48.632;10.156;2023-01-26T03:36:08;0.60;96.60
4739;DHT22;2383;48.632;10.156;2023-01-26T03:40:11;0.70;96.80
4739;DHT22;2383;48.632;10.156;2023-01-26T03:44:33;0.60;96.80
4739;DHT22;2383;48.632;10.156;2023-01-26T03:48:53;0.80;96.80
4739;DHT22;2383;48.632;10.156;2023-01-26T03:53:19;0.90;96.60
4739;DHT22;2383;48.632;10.156;2023-01-26T03:57:43;0.90;96.60
4739;DHT22;2383;48.632;10.156;2023-01-26T04:01:45;0.90;96.30
4739;DHT22;2383;48.632;10.156;2023-01-26T04:06:08;1.00;96.30
4739;DHT22;2383;48.632;10.156;2023-01-26T04:10:28;1.00;95.80
4739;DHT22;2383;48.632;10.156;2023-01-26T04:14:30;0.90;95.90
4739;DHT22;2383;48.632;10.156;2023-01-26T04:18:56;0.80;95.70
4739;DHT22;2383;48.632;10.156;2023-01-26T04:23:18;0.90;95.80
4739;DHT22;2383;48.632;10.156;2023-01-26T04:27:21;0.80;95.80
4739;DHT22;2383;48.632;10.156;2023-01-26T04:31:23;0.80;95.60
4739;DHT22;2383;48.632;10.156;2023-01-26T04:35:25;0.80;95.50
4739;DHT22;2383;48.632;10.156;2023-01-26T04:39:28;0.90;95.50
4739;DHT22;2383;48.632;10.156;2023-01-26T04:43:30;0.90;95.50
4739;DHT22;2383;48.632;10.156;2023-01-26T04:47:33;0.80;95.50
4739;DHT22;2383;48.632;10.156;2023-01-26T04:51:36;0.80;95.50
4739;DHT22;2383;48.632;10.156;2023-01-26T04:55:38;0.70;95.80
4739;DHT22;2383;48.632;10.156;2023-01-26T04:59:40;0.70;95.60
4739;DHT22;2383;48.632;10.156;2023-01-26T05:03:42;0.70;95.30
4739;DHT22;2383;48.632;10.156;2023-01-26T05:07:45;0.80;95.50
4739;DHT22;2383;48.632;10.156;2023-01-26T05:11:51;0.70;95.30
4739;DHT22;2383;48.632;10.156;2023-01-26T05:16:31;0.70;95.30
4739;DHT22;2383;48.632;10.156;2023-01-26T05:20:41;0.70;95.40
4739;DHT22;2383;48.632;10.156;2023-01-26T05:24:49;0.60;95.40
4739;DHT22;2383;48.632;10.156;2023-01-26T05:29:01;0.70;95.40
4739;DHT22;2383;48.632;10.156;2023-01-26T05:33:04;0.70;95.30
4739;DHT22;2383;48.632;10.156;2023-01-26T05:37:07;0.80;95.10
4739;DHT22;2383;48.632;10.156;2023-01-26T05:41:11;0.80;95.20
4739;DHT22;2383;48.632;10.156;2023-01-26T05:45:45;0.90;95.30
4739;DHT22;2383;48.632;10.156;2023-01-26T05:49:48;0.80;95.00
4739;DHT22;2383;48.632;10.156;2023-01-26T05:53:55;0.70;95.20
4739;DHT22;2383;48.632;10.156;2023-01-26T05:57:57;0.70;95.30
4739;DHT22;2383;48.632;10.156;2023-01-26T06:01:59;0.90;95.30
4739;DHT22;2383;48.632;10.156;2023-01-26T06:06:01;1.00;95.60
4739;DHT22;2383;48.632;10.156;2023-01-26T06:10:22;0.90;95.30
4739;DHT22;2383;48.632;10.156;2023-01-26T06:14:48;0.90;95.20
4739;DHT22;2383;48.632;10.156;2023-01-26T06:18:50;0.80;95.50
4739;DHT22;2383;48.632;10.156;2023-01-26T06:22:53;0.80;95.50
4739;DHT22;2383;48.632;10.156;2023-01-26T06:26:54;0.70;95.60
4739;DHT22;2383;48.632;10.156;2023-01-26T06:31:04;0.40;95.70
4739;DHT22;2383;48.632;10.156;2023-01-26T06:35:07;0.50;96.20
4739;DHT22;2383;48.632;10.156;2023-01-26T06:39:10;0.70;95.90
4739;DHT22;2383;48.632;10.156;2023-01-26T06:43:13;0.60;95.80
4739;DHT22;2383;48.632;10.156;2023-01-26T06:47:16;0.60;95.90
4739;DHT22;2383;48.632;10.156;2023-01-26T06:55:27;0.60;95.90
4739;DHT22;2383;48.632;10.156;2023-01-26T06:59:48;0.70;95.80
4739;DHT22;2383;48.632;10.156;2023-01-26T07:04:05;0.70;95.70
4739;DHT22;2383;48.632;10.156;2023-01-26T07:08:07;0.70;95.80
4739;DHT22;2383;48.632;10.156;2023-01-26T07:12:09;0.60;95.70
4739;DHT22;2383;48.632;10.156;2023-01-26T07:16:13;0.80;95.60
4739;DHT22;2383;48.632;10.156;2023-01-26T07:20:16;0.90;95.50
4739;DHT22;2383;48.632;10.156;2023-01-26T07:24:18;0.30;95.80
4739;DHT22;2383;48.632;10.156;2023-01-26T07:28:22;0.70;95.90
4739;DHT22;2383;48.632;10.156;2023-01-26T07:32:26;0.50;95.80
4739;DHT22;2383;48.632;10.156;2023-01-26T07:36:28;0.60;95.90
4739;DHT22;2383;48.632;10.156;2023-01-26T07:40:32;0.80;95.90
4739;DHT22;2383;48.632;10.156;2023-01-26T07:44:34;0.70;95.80
4739;DHT22;2383;48.632;10.156;2023-01-26T07:48:37;0.70;95.80
4739;DHT22;2383;48.632;10.156;2023-01-26T07:52:39;0.90;95.80
4739;DHT22;2383;48.632;10.156;2023-01-26T07:56:41;1.00;95.60
4739;DHT22;2383;48.632;10.156;2023-01-26T08:00:45;1.00;95.40
4739;DHT22;2383;48.632;10.156;2023-01-26T08:04:49;1.00;95.40
4739;DHT22;2383;48.632;10.156;2023-01-26T08:08:51;1.00;95.30
4739;DHT22;2383;48.632;10.156;2023-01-26T08:12:59;1.10;95.40
4739;DHT22;2383;48.632;10.156;2023-01-26T08:17:01;0.90;95.20
4739;DHT22;2383;48.632;10.156;2023-01-26T08:21:03;1.00;94.60
4739;DHT22;2383;48.632;10.156;2023-01-26T08:25:06;1.00;94.80
4739;DHT22;2383;48.632;10.156;2023-01-26T08:29:08;1.10;94.80
4739;DHT22;2383;48.632;10.156;2023-01-26T08:33:10;1.20;94.00
4739;DHT22;2383;48.632;10.156;2023-01-26T08:37:11;1.20;93.70
4739;DHT22;2383;48.632;10.156;2023-01-26T08:41:13;0.90;94.60
4739;DHT22;2383;48.632;10.156;2023-01-26T08:45:15;0.90;94.70
4739;DHT22;2383;48.632;10.156;2023-01-26T08:49:17;1.20;94.20
4739;DHT22;2383;48.632;10.156;2023-01-26T08:53:19;1.10;94.20
4739;DHT22;2383;48.632;10.156;2023-01-26T08:57:21;-0.10;94.60
4739;DHT22;2383;48.632;10.156;2023-01-26T09:01:23;0.30;94.20
4739;DHT22;2383;48.632;10.156;2023-01-26T09:05:26;0.60;94.30
4739;DHT22;2383;48.632;10.156;2023-01-26T09:09:28;0.70;94.40
4739;DHT22;2383;48.632;10.156;2023-01-26T09:13:31;1.10;94.10
4739;DHT22;2383;48.632;10.156;2023-01-26T09:17:33;1.20;93.90
4739;DHT22;2383;48.632;10.156;2023-01-26T09:21:34;1.20;93.80
4739;DHT22;2383;48.632;10.156;2023-01-26T09:25:37;1.20;94.10
4739;DHT22;2383;48.632;10.156;2023-01-26T09:29:39;1.00;94.00
4739;DHT22;2383;48.632;10.156;2023-01-26T09:33:41;-0.20;95.30
4739;DHT22;2383;48.632;10.156;2023-01-26T09:37:45;-0.30;95.50
4739;DHT22;2383;48.632;10.156;2023-01-26T09:46:36;0.50;94.60
4739;DHT22;2383;48.632;10.156;2023-01-26T09:54:56;0.40;94.80
4739;DHT22;2383;48.632;10.156;2023-01-26T10:00:05;0.80;94.60
4739;DHT22;2383;48.632;10.156;2023-01-26T10:03:46;0.20;95.20
4739;DHT22;2383;48.632;10.156;2023-01-26T10:07:50;0.60;94.60
4739;DHT22;2383;48.632;10.156;2023-01-26T10:12:06;-0.60;95.30
4739;DHT22;2383;48.632;10.156;2023-01-26T10:16:09;0.00;94.90
4739;DHT22;2383;48.632;10.156;2023-01-26T10:24:33;0.50;94.70
4739;DHT22;2383;48.632;10.156;2023-01-26T10:28:35;-0.80;95.10
4739;DHT22;2383;48.632;10.156;2023-01-26T10:32:40;-1.30;96.70
4739;DHT22;2383;48.632;10.156;2023-01-26T10:36:45;-0.30;96.00
4739;DHT22;2383;48.632;10.156;2023-01-26T10:40:47;0.10;94.80
4739;DHT22;2383;48.632;10.156;2023-01-26T10:44:49;-0.20;94.90
4739;DHT22;2383;48.632;10.156;2023-01-26T10:49:00;0.30;94.90
4739;DHT22;2383;48.632;10.156;2023-01-26T10:53:03;0.70;94.20
4739;DHT22;2383;48.632;10.156;2023-01-26T10:57:31;0.60;94.30
4739;DHT22;2383;48.632;10.156;2023-01-26T11:06:14;0.30;94.30
4739;DHT22;2383;48.632;10.156;2023-01-26T11:14:25;0.20;94.90
4739;DHT22;2383;48.632;10.156;2023-01-26T11:18:41;-0.50;95.40
4739;DHT22;2383;48.632;10.156;2023-01-26T11:27:39;-1.00;96.20
4739;DHT22;2383;48.632;10.156;2023-01-26T11:31:53;-0.60;95.80
4739;DHT22;2383;48.632;10.156;2023-01-26T11:36:02;-0.70;95.70
4739;DHT22;2383;48.632;10.156;2023-01-26T11:44:30;-3.10;98.70
4739;DHT22;2383;48.632;10.156;2023-01-26T11:48:38;-2.90;98.20
4739;DHT22;2383;48.632;10.156;2023-01-26T11:53:18;-1.80;97.80
4739;DHT22;2383;48.632;10.156;2023-01-26T12:02:02;-0.10;95.20
4739;DHT22;2383;48.632;10.156;2023-01-26T12:06:07;0.30;94.80
4739;DHT22;2383;48.632;10.156;2023-01-26T12:10:14;-0.40;95.20
4739;DHT22;2383;48.632;10.156;2023-01-26T12:18:47;0.20;94.80
4739;DHT22;2383;48.632;10.156;2023-01-26T12:27:31;0.30;94.70
4739;DHT22;2383;48.632;10.156;2023-01-26T12:31:54;-0.20;95.40
4739;DHT22;2383;48.632;10.156;2023-01-26T12:40:32;-0.30;95.20
4739;DHT22;2383;48.632;10.156;2023-01-26T12:44:57;0.40;95.00
4739;DHT22;2383;48.632;10.156;2023-01-26T12:49:14;-0.40;95.70
4739;DHT22;2383;48.632;10.156;2023-01-26T12:53:20;0.00;95.30
4739;DHT22;2383;48.632;10.156;2023-01-26T12:57:30;-1.00;96.30
4739;DHT22;2383;48.632;10.156;2023-01-26T13:01:39;-0.30;96.00
4739;DHT22;2383;48.632;10.156;2023-01-26T13:14:24;0.60;94.70
4739;DHT22;2383;48.632;10.156;2023-01-26T13:18:46;0.70;94.70
4739;DHT22;2383;48.632;10.156;2023-01-26T13:22:49;0.90;94.60
4739;DHT22;2383;48.632;10.156;2023-01-26T13:26:56;1.00;94.60
4739;DHT22;2383;48.632;10.156;2023-01-26T13:31:05;0.90;94.80
4739;DHT22;2383;48.632;10.156;2023-01-26T13:35:09;0.90;94.60
4739;DHT22;2383;48.632;10.156;2023-01-26T13:39:34;1.10;94.50
4739;DHT22;2383;48.632;10.156;2023-01-26T13:43:41;1.10;94.40
4739;DHT22;2383;48.632;10.156;2023-01-26T13:47:45;1.10;94.30
4739;DHT22;2383;48.632;10.156;2023-01-26T13:51:48;1.20;94.40
4739;DHT22;2383;48.632;10.156;2023-01-26T13:55:55;1.20;94.20
4739;DHT22;2383;48.632;10.156;2023-01-26T13:59:59;0.50;94.50
4739;DHT22;2383;48.632;10.156;2023-01-26T14:04:04;0.40;95.10
4739;DHT22;2383;48.632;10.156;2023-01-26T14:08:12;0.00;95.60
4739;DHT22;2383;48.632;10.156;2023-01-26T14:12:26;0.20;95.70
4739;DHT22;2383;48.632;10.156;2023-01-26T14:16:30;0.30;95.40
4739;DHT22;2383;48.632;10.156;2023-01-26T14:20:38;0.60;95.30
4739;DHT22;2383;48.632;10.156;2023-01-26T14:24:40;0.90;95.00
4739;DHT22;2383;48.632;10.156;2023-01-26T14:28:44;0.70;94.70
4739;DHT22;2383;48.632;10.156;2023-01-26T14:32:47;0.20;95.30
4739;DHT22;2383;48.632;10.156;2023-01-26T14:37:11;-0.30;95.30
4739;DHT22;2383;48.632;10.156;2023-01-26T14:41:19;0.20;95.60
4739;DHT22;2383;48.632;10.156;2023-01-26T14:45:30;0.50;95.10
4739;DHT22;2383;48.632;10.156;2023-01-26T14:53:53;0.50;95.00
4739;DHT22;2383;48.632;10.156;2023-01-26T14:57:56;0.40;94.70
4739;DHT22;2383;48.632;10.156;2023-01-26T15:02:20;0.20;95.10
4739;DHT22;2383;48.632;10.156;2023-01-26T15:06:25;-1.30;96.40
4739;DHT22;2383;48.632;10.156;2023-01-26T15:14:59;-0.40;96.20
4739;DHT22;2383;48.632;10.156;2023-01-26T15:19:04;0.20;95.50
4739;DHT22;2383;48.632;10.156;2023-01-26T15:23:33;0.40;94.90
4739;DHT22;2383;48.632;10.156;2023-01-26T15:27:35;0.10;95.30
4739;DHT22;2383;48.632;10.156;2023-01-26T15:31:39;-0.80;96.20
4739;DHT22;2383;48.632;10.156;2023-01-26T15:35:56;-0.10;95.60
4739;DHT22;2383;48.632;10.156;2023-01-26T15:39:58;-0.20;95.70
4739;DHT22;2383;48.632;10.156;2023-01-26T15:44:00;0.10;95.10
4739;DHT22;2383;48.632;10.156;2023-01-26T15:48:02;0.40;95.00
4739;DHT22;2383;48.632;10.156;2023-01-26T15:52:14;0.50;94.90
4739;DHT22;2383;48.632;10.156;2023-01-26T15:56:16;0.60;94.60
4739;DHT22;2383;48.632;10.156;2023-01-26T16:00:18;0.70;94.30
4739;DHT22;2383;48.632;10.156;2023-01-26T16:04:20;0.70;94.20
4739;DHT22;2383;48.632;10.156;2023-01-26T16:08:22;0.40;94.50
4739;DHT22;2383;48.632;10.156;2023-01-26T16:12:24;0.50;94.80
4739;DHT22;2383;48.632;10.156;2023-01-26T16:16:33;0.60;94.20
4739;DHT22;2383;48.632;10.156;2023-01-26T16:20:36;0.40;94.10
4739;DHT22;2383;48.632;10.156;2023-01-26T16:24:39;0.30;94.70
4739;DHT22;2383;48.632;10.156;2023-01-26T16:28:41;0.40;94.70
4739;DHT22;2383;48.632;10.156;2023-01-26T16:32:43;0.10;95.00
4739;DHT22;2383;48.632;10.156;2023-01-26T16:36:46;0.20;95.10
4739;DHT22;2383;48.632;10.156;2023-01-26T16:40:48;-0.50;95.90
4739;DHT22;2383;48.632;10.156;2023-01-26T16:44:50;-0.80;96.00
4739;DHT22;2383;48.632;10.156;2023-01-26T16:48:52;-0.50;95.70
4739;DHT22;2383;48.632;10.156;2023-01-26T16:52:54;-0.40;95.80
4739;DHT22;2383;48.632;10.156;2023-01-26T16:56:56;0.00;95.50
4739;DHT22;2383;48.632;10.156;2023-01-26T17:00:58;0.10;95.10
4739;DHT22;2383;48.632;10.156;2023-01-26T17:05:00;0.00;95.20
4739;DHT22;2383;48.632;10.156;2023-01-26T17:09:02;-0.80;95.80
4739;DHT22;2383;48.632;10.156;2023-01-26T17:13:05;-0.90;96.20
4739;DHT22;2383;48.632;10.156;2023-01-26T17:17:09;-0.40;96.20
4739;DHT22;2383;48.632;10.156;2023-01-26T17:21:12;-0.50;95.70
4739;DHT22;2383;48.632;10.156;2023-01-26T17:25:15;-0.70;95.90
4739;DHT22;2383;48.632;10.156;2023-01-26T17:29:18;-0.40;96.20
4739;DHT22;2383;48.632;10.156;2023-01-26T17:33:20;0.00;95.50
4739;DHT22;2383;48.632;10.156;2023-01-26T17:37:25;-0.20;95.40
4739;DHT22;2383;48.632;10.156;2023-01-26T17:41:27;-0.30;95.70
4739;DHT22;2383;48.632;10.156;2023-01-26T17:45:29;-0.30;95.50
4739;DHT22;2383;48.632;10.156;2023-01-26T17:49:31;-0.20;95.30
4739;DHT22;2383;48.632;10.156;2023-01-26T17:53:40;-0.90;95.30
4739;DHT22;2383;48.632;10.156;2023-01-26T17:57:42;-1.30;96.60
4739;DHT22;2383;48.632;10.156;2023-01-26T18:01:44;-1.50;96.60
4739;DHT22;2383;48.632;10.156;2023-01-26T18:05:51;-1.80;97.40
4739;DHT22;2383;48.632;10.156;2023-01-26T18:09:53;-1.40;96.50
4739;DHT22;2383;48.632;10.156;2023-01-26T18:13:55;-0.70;95.80
4739;DHT22;2383;48.632;10.156;2023-01-26T18:17:58;-0.60;95.50
4739;DHT22;2383;48.632;10.156;2023-01-26T18:22:00;-0.90;95.80
4739;DHT22;2383;48.632;10.156;2023-01-26T18:26:02;-1.00;96.30
4739;DHT22;2383;48.632;10.156;2023-01-26T18:30:06;-0.80;96.20
4739;DHT22;2383;48.632;10.156;2023-01-26T18:34:09;-1.40;96.40
4739;DHT22;2383;48.632;10.156;2023-01-26T18:38:12;-0.80;96.30
4739;DHT22;2383;48.632;10.156;2023-01-26T18:42:13;-0.60;96.20
4739;DHT22;2383;48.632;10.156;2023-01-26T18:46:16;-0.40;95.70
4739;DHT22;2383;48.632;10.156;2023-01-26T18:50:18;-0.90;96.00
4739;DHT22;2383;48.632;10.156;2023-01-26T18:54:20;-1.00;96.50
4739;DHT22;2383;48.632;10.156;2023-01-26T19:04:42;-0.30;95.50
4739;DHT22;2383;48.632;10.156;2023-01-26T19:08:52;-1.10;96.30
4739;DHT22;2383;48.632;10.156;2023-01-26T19:12:58;-1.10;96.00
4739;DHT22;2383;48.632;10.156;2023-01-26T19:17:00;-0.80;95.90
4739;DHT22;2383;48.632;10.156;2023-01-26T19:21:03;-0.90;95.40
4739;DHT22;2383;48.632;10.156;2023-01-26T19:25:05;-0.40;95.50
4739;DHT22;2383;48.632;10.156;2023-01-26T19:29:09;-0.60;95.20
4739;DHT22;2383;48.632;10.156;2023-01-26T19:33:11;-1.00;95.70
4739;DHT22;2383;48.632;10.156;2023-01-26T19:37:25;-1.60;96.00
4739;DHT22;2383;48.632;10.156;2023-01-26T19:41:28;-2.30;96.30
4739;DHT22;2383;48.632;10.156;2023-01-26T19:45:30;-1.80;96.90
4739;DHT22;2383;48.632;10.156;2023-01-26T19:49:32;-1.70;96.70
4739;DHT22;2383;48.632;10.156;2023-01-26T19:53:36;-1.40;96.40
4739;DHT22;2383;48.632;10.156;2023-01-26T19:57:39;-2.20;97.10
4739;DHT22;2383;48.632;10.156;2023-01-26T20:01:41;-1.70;96.80
4739;DHT22;2383;48.632;10.156;2023-01-26T20:05:43;-2.20;96.70
4739;DHT22;2383;48.632;10.156;2023-01-26T20:09:45;-1.40;96.40
4739;DHT22;2383;48.632;10.156;2023-01-26T20:13:55;-2.50;97.20
4739;DHT22;2383;48.632;10.156;2023-01-26T20:17:57;-3.10;97.90
4739;DHT22;2383;48.632;10.156;2023-01-26T20:21:59;-1.70;97.30
4739;DHT22;2383;48.632;10.156;2023-01-26T20:26:04;-1.70;96.80
4739;DHT22;2383;48.632;10.156;2023-01-26T20:30:08;-2.20;97.40
4739;DHT22;2383;48.632;10.156;2023-01-26T20:34:11;-1.70;97.10
4739;DHT22;2383;48.632;10.156;2023-01-26T20:38:14;-1.10;96.50
4739;DHT22;2383;48.632;10.156;2023-01-26T20:42:16;-0.90;95.60
4739;DHT22;2383;48.632;10.156;2023-01-26T20:46:19;-0.40;95.20
4739;DHT22;2383;48.632;10.156;2023-01-26T20:50:21;-0.30;94.40
4739;DHT22;2383;48.632;10.156;2023-01-26T20:54:23;-0.60;95.00
4739;DHT22;2383;48.632;10.156;2023-01-26T20:58:25;-0.30;94.90
4739;DHT22;2383;48.632;10.156;2023-01-26T21:02:27;-0.50;95.20
4739;DHT22;2383;48.632;10.156;2023-01-26T21:06:29;-0.30;94.90
4739;DHT22;2383;48.632;10.156;2023-01-26T21:10:33;-0.30;94.60
4739;DHT22;2383;48.632;10.156;2023-01-26T21:14:35;-1.30;95.20
4739;DHT22;2383;48.632;10.156;2023-01-26T21:18:37;-1.00;95.50
4739;DHT22;2383;48.632;10.156;2023-01-26T21:22:39;-1.90;95.30
4739;DHT22;2383;48.632;10.156;2023-01-26T21:26:41;-1.80;96.40
4739;DHT22;2383;48.632;10.156;2023-01-26T21:30:43;-2.40;96.50
4739;DHT22;2383;48.632;10.156;2023-01-26T21:34:45;-2.50;97.20
4739;DHT22;2383;48.632;10.156;2023-01-26T21:38:49;-2.40;96.70
4739;DHT22;2383;48.632;10.156;2023-01-26T21:42:52;-2.40;96.40
4739;DHT22;2383;48.632;10.156;2023-01-26T21:46:59;-2.80;97.00
4739;DHT22;2383;48.632;10.156;2023-01-26T21:51:02;-2.00;96.80
4739;DHT22;2383;48.632;10.156;2023-01-26T21:55:23;-1.80;96.00
4739;DHT22;2383;48.632;10.156;2023-01-26T21:59:25;-2.20;95.90
4739;DHT22;2383;48.632;10.156;2023-01-26T22:03:27;-2.50;96.00
4739;DHT22;2383;48.632;10.156;2023-01-26T22:07:29;-1.60;95.80
4739;DHT22;2383;48.632;10.156;2023-01-26T22:11:32;-1.20;95.20
4739;DHT22;2383;48.632;10.156;2023-01-26T22:15:34;-0.80;95.00
4739;DHT22;2383;48.632;10.156;2023-01-26T22:19:36;-0.70;94.60
4739;DHT22;2383;48.632;10.156;2023-01-26T22:23:39;-0.60;94.40
4739;DHT22;2383;48.632;10.156;2023-01-26T22:27:41;-0.40;94.40
4739;DHT22;2383;48.632;10.156;2023-01-26T22:31:43;-0.20;94.10
4739;DHT22;2383;48.632;10.156;2023-01-26T22:35:45;-0.10;93.90
4739;DHT22;2383;48.632;10.156;2023-01-26T22:39:48;-0.10;93.80
4739;DHT22;2383;48.632;10.156;2023-01-26T22:43:52;-0.10;93.70
4739;DHT22;2383;48.632;10.156;2023-01-26T22:47:55;0.00;93.80
4739;DHT22;2383;48.632;10.156;2023-01-26T22:51:57;-0.20;94.00
4739;DHT22;2383;48.632;10.156;2023-01-26T22:55:58;0.00;93.80
4739;DHT22;2383;48.632;10.156;2023-01-26T23:00:01;0.00;93.50
4739;DHT22;2383;48.632;10.156;2023-01-26T23:04:03;0.00;93.60
4739;DHT22;2383;48.632;10.156;2023-01-26T23:08:05;0.10;93.60
4739;DHT22;2383;48.632;10.156;2023-01-26T23:12:07;0.10;93.80
4739;DHT22;2383;48.632;10.156;2023-01-26T23:16:10;0.20;93.70
4739;DHT22;2383;48.632;10.156;2023-01-26T23:20:12;0.20;93.50
4739;DHT22;2383;48.632;10.156;2023-01-26T23:24:14;0.10;93.50
4739;DHT22;2383;48.632;10.156;2023-01-26T23:28:31;0.10;93.60
4739;DHT22;2383;48.632;10.156;2023-01-26T23:32:33;0.20;93.80
4739;DHT22;2383;48.632;10.156;2023-01-26T23:36:35;-0.20;93.70
4739;DHT22;2383;48.632;10.156;2023-01-26T23:40:37;0.00;93.90
4739;DHT22;2383;48.632;10.156;2023-01-26T23:44:39;-0.20;94.10
4739;DHT22;2383;48.632;10.156;2023-01-26T23:48:41;-0.20;93.90
4739;DHT22;2383;48.632;10.156;2023-01-26T23:52:43;0.00;93.70
4739;DHT22;2383;48.632;10.156;2023-01-26T23:56:45;0.10;93.90
